Time;durP1;ratioP1;P1;durP2;ratioP2;P2;SDS_P1;SDS_P2;PMS_P1;PMS_P2;Temp;Humidity;BMP_temperature;BMP_pressure;BME280_temperature;BME280_humidity;BME280_pressure;Samples;Min_cycle;Max_cycle;Signal;HPM_P1;HPM_P2
2023/04/30 00:00:07;;;;;;;26.00;20.92;;;11.30;99.90;;;;;;2081173;28;20028;-74
2023/04/30 00:01:10;;;;;;;32.53;24.25;;;11.30;99.90;;;;;;2086369;28;20090;-74
2023/04/30 00:02:11;;;;;;;31.70;24.08;;;11.30;99.90;;;;;;2088078;28;20087;-74
2023/04/30 00:03:12;;;;;;;27.35;22.50;;;11.30;99.90;;;;;;2088565;28;20020;-74
2023/04/30 00:04:12;;;;;;;30.58;24.30;;;11.20;99.90;;;;;;2086929;28;20453;-73
2023/04/30 00:05:13;;;;;;;31.90;24.20;;;11.20;99.90;;;;;;2088416;28;20029;-75
2023/04/30 00:06:13;;;;;;;27.48;22.40;;;11.20;99.90;;;;;;2085996;28;20541;-74
2023/04/30 00:07:14;;;;;;;26.60;21.85;;;11.20;99.90;;;;;;2084433;28;20029;-73
2023/04/30 00:08:15;;;;;;;27.08;22.40;;;11.20;99.90;;;;;;2086380;28;20025;-74
2023/04/30 00:09:15;;;;;;;29.42;24.00;;;11.20;99.90;;;;;;2085128;28;20025;-74
2023/04/30 00:10:16;;;;;;;30.75;23.70;;;11.20;99.90;;;;;;2088359;28;20036;-75
2023/04/30 00:11:16;;;;;;;26.27;21.60;;;11.20;99.90;;;;;;2087277;28;20025;-77
2023/04/30 00:12:17;;;;;;;26.38;21.73;;;11.20;99.90;;;;;;2088017;28;20058;-75
2023/04/30 00:13:17;;;;;;;29.10;22.98;;;11.20;99.90;;;;;;2087986;28;20032;-74
2023/04/30 00:14:18;;;;;;;30.85;22.60;;;11.20;99.90;;;;;;2089617;28;20033;-75
2023/04/30 00:15:19;;;;;;;28.67;22.65;;;11.20;99.90;;;;;;2091389;28;20111;-75
2023/04/30 00:16:19;;;;;;;31.23;23.75;;;11.20;99.90;;;;;;2085900;28;20094;-75
2023/04/30 00:17:20;;;;;;;28.90;23.52;;;11.20;99.90;;;;;;2086003;28;20155;-75
2023/04/30 00:18:20;;;;;;;30.83;24.58;;;11.20;99.90;;;;;;2088630;28;20436;-75
2023/04/30 00:19:21;;;;;;;27.63;22.95;;;11.10;99.90;;;;;;2087786;28;20430;-73
2023/04/30 00:20:22;;;;;;;29.67;23.63;;;11.20;99.90;;;;;;2087027;28;20063;-74
2023/04/30 00:21:26;;;;;;;34.42;23.98;;;11.20;99.90;;;;;;2079645;28;20134;-74
2023/04/30 00:22:27;;;;;;;29.88;24.17;;;11.10;99.90;;;;;;2085893;28;20148;-74
2023/04/30 00:23:27;;;;;;;31.48;24.15;;;11.10;99.90;;;;;;2093254;28;20097;-73
2023/04/30 00:24:28;;;;;;;29.80;24.58;;;11.10;99.90;;;;;;2088657;28;20027;-73
2023/04/30 00:25:28;;;;;;;27.73;21.92;;;11.10;99.90;;;;;;2085457;28;20053;-78
2023/04/30 00:26:29;;;;;;;24.98;19.98;;;11.10;99.90;;;;;;2077578;28;20025;-78
2023/04/30 00:27:30;;;;;;;27.75;21.05;;;11.10;99.90;;;;;;2077993;28;20037;-78
2023/04/30 00:28:31;;;;;;;30.25;22.73;;;11.10;99.90;;;;;;2092470;28;20121;-79
2023/04/30 00:29:32;;;;;;;25.30;20.00;;;11.10;99.90;;;;;;2075860;28;20059;-78
2023/04/30 00:30:32;;;;;;;21.45;18.13;;;11.10;99.90;;;;;;2094920;28;20162;-79
2023/04/30 00:31:33;;;;;;;23.38;18.15;;;11.10;99.90;;;;;;2086839;28;20025;-78
2023/04/30 00:32:33;;;;;;;24.23;18.48;;;11.10;99.90;;;;;;2070502;28;20037;-79
2023/04/30 00:33:34;;;;;;;23.10;18.23;;;11.10;99.90;;;;;;2083762;28;20054;-79
2023/04/30 00:34:35;;;;;;;22.02;16.17;;;11.10;99.90;;;;;;2084607;28;20480;-76
2023/04/30 00:35:35;;;;;;;20.85;15.98;;;11.10;99.90;;;;;;2083365;28;20025;-78
2023/04/30 00:36:36;;;;;;;20.23;16.30;;;11.10;99.90;;;;;;2085848;28;20071;-77
2023/04/30 00:37:37;;;;;;;19.02;15.02;;;11.00;99.90;;;;;;2088293;28;20121;-78
2023/04/30 00:38:38;;;;;;;18.27;14.48;;;11.00;99.90;;;;;;2103689;28;20518;-79
2023/04/30 00:39:39;;;;;;;18.27;14.60;;;11.00;99.90;;;;;;2088136;28;20037;-78
2023/04/30 00:40:43;;;;;;;19.58;15.20;;;11.00;99.90;;;;;;2089271;28;20099;-79
2023/04/30 00:41:44;;;;;;;18.00;14.63;;;10.90;99.90;;;;;;2096705;28;20039;-79
2023/04/30 00:42:45;;;;;;;21.38;14.05;;;10.90;99.90;;;;;;2104973;28;20023;-78
2023/04/30 00:43:46;;;;;;;17.27;13.40;;;10.90;99.90;;;;;;2085646;28;20028;-78
2023/04/30 00:44:46;;;;;;;21.55;13.95;;;10.80;99.90;;;;;;2085534;28;20021;-78
2023/04/30 00:45:47;;;;;;;16.05;13.15;;;10.80;99.90;;;;;;2085345;28;20060;-76
2023/04/30 00:46:47;;;;;;;18.70;13.20;;;10.80;99.90;;;;;;2091923;28;20028;-79
2023/04/30 00:47:49;;;;;;;18.55;13.48;;;10.80;99.90;;;;;;2092144;28;20060;-78
2023/04/30 00:48:49;;;;;;;16.25;12.65;;;10.70;99.90;;;;;;2083191;28;20021;-79
2023/04/30 00:49:50;;;;;;;17.27;13.27;;;10.70;99.90;;;;;;2082396;28;20028;-79
2023/04/30 00:50:51;;;;;;;14.90;12.57;;;10.70;99.90;;;;;;2076048;28;20154;-78
2023/04/30 00:51:53;;;;;;;17.13;12.52;;;10.60;99.90;;;;;;2083657;28;20024;-78
2023/04/30 00:52:53;;;;;;;17.80;12.75;;;10.60;99.90;;;;;;2084368;28;20492;-78
2023/04/30 00:53:54;;;;;;;15.35;12.40;;;10.50;99.90;;;;;;2083913;28;20020;-78
2023/04/30 00:54:55;;;;;;;13.18;11.73;;;10.60;99.90;;;;;;2082464;28;20039;-79
2023/04/30 00:55:57;;;;;;;15.27;12.50;;;10.50;99.90;;;;;;2082651;28;20492;-77
2023/04/30 00:56:59;;;;;;;22.13;17.05;;;10.50;99.90;;;;;;2084420;28;20124;-79
2023/04/30 00:58:00;;;;;;;23.05;17.92;;;10.50;99.90;;;;;;2087313;28;20043;-80
2023/04/30 00:59:01;;;;;;;24.92;18.40;;;10.40;99.90;;;;;;2082300;28;20164;-79
2023/04/30 01:00:02;;;;;;;22.45;18.08;;;10.40;99.90;;;;;;2084405;28;20311;-80
2023/04/30 01:01:03;;;;;;;22.50;17.42;;;10.40;99.90;;;;;;2081779;28;20129;-80
2023/04/30 01:02:04;;;;;;;24.67;18.38;;;10.30;99.90;;;;;;2085637;28;20048;-79
2023/04/30 01:03:06;;;;;;;21.92;17.73;;;10.30;99.90;;;;;;2083912;28;20068;-79
2023/04/30 01:04:06;;;;;;;26.63;19.23;;;10.30;99.90;;;;;;2084984;28;20446;-78
2023/04/30 01:05:07;;;;;;;26.10;20.55;;;10.20;99.90;;;;;;2077040;28;20029;-70
2023/04/30 01:06:08;;;;;;;25.77;20.60;;;10.20;99.90;;;;;;2067444;28;20121;-77
2023/04/30 01:07:09;;;;;;;30.38;21.13;;;10.10;99.90;;;;;;2090820;28;20032;-75
2023/04/30 01:08:10;;;;;;;29.63;21.17;;;10.10;99.90;;;;;;2097088;28;20406;-75
2023/04/30 01:09:11;;;;;;;25.70;20.33;;;10.10;99.90;;;;;;2084010;28;20334;-77
2023/04/30 01:10:13;;;;;;;26.75;21.38;;;10.00;99.90;;;;;;2083618;28;20680;-75
2023/04/30 01:11:35;;;;;;;24.83;20.38;;;10.00;99.90;;;;;;2081843;28;20202;-76
2023/04/30 01:12:48;;;;;;;24.40;19.65;;;10.00;99.90;;;;;;2076632;28;20021;-76
2023/04/30 01:14:07;;;;;;;25.35;20.08;;;10.00;99.90;;;;;;2091594;28;20040;-76
2023/04/30 01:15:26;;;;;;;27.10;20.58;;;9.90;99.90;;;;;;2089974;28;20028;-75
2023/04/30 01:16:32;;;;;;;29.50;21.33;;;9.90;99.90;;;;;;2081531;28;20036;-76
2023/04/30 01:17:42;;;;;;;25.42;20.38;;;9.90;99.90;;;;;;2087907;28;20229;-76
2023/04/30 01:18:51;;;;;;;27.38;19.75;;;9.80;99.90;;;;;;2102838;28;20044;-76
2023/04/30 01:19:52;;;;;;;25.98;19.70;;;9.80;99.90;;;;;;2097184;28;20511;-75
2023/04/30 01:21:02;;;;;;;28.60;18.67;;;9.80;99.90;;;;;;2087973;28;20035;-76
2023/04/30 01:22:08;;;;;;;24.70;18.73;;;9.70;99.90;;;;;;2089986;28;20082;-76
2023/04/30 01:23:46;;;;;;;24.10;18.38;;;9.70;99.90;;;;;;2087593;28;20028;-75
2023/04/30 01:25:04;;;;;;;25.83;17.27;;;9.70;99.90;;;;;;2093367;28;20032;-76
2023/04/30 01:26:13;;;;;;;21.73;16.27;;;9.70;99.90;;;;;;2086253;28;20090;-75
2023/04/30 01:27:30;;;;;;;20.05;15.90;;;9.70;99.90;;;;;;2077699;28;20050;-75
2023/04/30 01:28:34;;;;;;;18.88;15.10;;;9.70;99.90;;;;;;2085514;28;20048;-75
2023/04/30 01:29:36;;;;;;;20.20;15.50;;;9.60;99.90;;;;;;2081679;28;20106;-75
2023/04/30 01:30:39;;;;;;;24.23;18.05;;;9.60;99.90;;;;;;2081840;28;20047;-75
2023/04/30 01:31:42;;;;;;;26.10;17.67;;;9.70;99.90;;;;;;2092089;28;20029;-76
2023/04/30 01:32:43;;;;;;;21.45;16.38;;;9.60;99.90;;;;;;2083722;28;20102;-75
2023/04/30 01:33:44;;;;;;;22.88;17.73;;;9.60;99.90;;;;;;2079579;28;20020;-75
2023/04/30 01:34:45;;;;;;;23.65;17.10;;;9.60;99.90;;;;;;2087451;28;20074;-75
2023/04/30 01:36:27;;;;;;;20.63;16.52;;;9.60;99.90;;;;;;2083265;28;20103;-75
2023/04/30 01:37:32;;;;;;;24.98;18.25;;;9.60;99.90;;;;;;2082161;28;20044;-75
2023/04/30 01:38:52;;;;;;;25.08;17.88;;;9.60;99.90;;;;;;2079716;28;20338;-75
2023/04/30 01:40:28;;;;;;;25.77;17.95;;;9.60;99.90;;;;;;2079546;28;20090;-76
2023/04/30 01:41:39;;;;;;;24.83;18.85;;;9.60;99.90;;;;;;2077916;28;20475;-75
2023/04/30 01:43:07;;;;;;;24.85;19.05;;;9.60;99.90;;;;;;2086411;28;20055;-75
2023/04/30 01:44:27;;;;;;;27.52;20.08;;;9.50;99.90;;;;;;2090324;28;20326;-74
2023/04/30 01:45:27;;;;;;;26.50;18.73;;;9.50;99.90;;;;;;2085568;28;20102;-75
2023/04/30 01:46:29;;;;;;;25.88;19.38;;;9.50;99.90;;;;;;2079123;28;20021;-75
2023/04/30 01:47:38;;;;;;;26.25;19.75;;;9.50;99.90;;;;;;2081354;28;20068;-77
2023/04/30 01:48:52;;;;;;;26.83;19.88;;;9.40;99.90;;;;;;2076488;28;20510;-76
2023/04/30 01:49:59;;;;;;;28.30;21.55;;;9.40;99.90;;;;;;2083500;28;20948;-76
2023/04/30 01:51:23;;;;;;;26.65;21.05;;;9.40;99.90;;;;;;2090238;28;20036;-75
2023/04/30 01:52:39;;;;;;;27.88;21.50;;;9.40;99.90;;;;;;2078795;28;20554;-74
2023/04/30 01:53:42;;;;;;;27.75;20.88;;;9.40;99.90;;;;;;2078536;28;20034;-75
2023/04/30 01:55:02;;;;;;;27.75;20.60;;;9.40;99.90;;;;;;2077049;28;20021;-75
2023/04/30 01:56:08;;;;;;;27.52;20.88;;;9.30;99.90;;;;;;2089814;28;20028;-75
2023/04/30 01:57:21;;;;;;;26.77;21.27;;;9.30;99.90;;;;;;2077284;28;20335;-75
2023/04/30 01:58:24;;;;;;;28.40;21.05;;;9.30;99.90;;;;;;2076587;28;20041;-74
2023/04/30 01:59:25;;;;;;;26.23;20.27;;;9.20;99.90;;;;;;2076799;28;20009;-74
2023/04/30 02:00:29;;;;;;;29.30;21.13;;;9.20;99.90;;;;;;2081308;28;20396;-75
2023/04/30 02:01:31;;;;;;;27.50;21.25;;;9.20;99.90;;;;;;2077082;28;20041;-74
2023/04/30 02:02:32;;;;;;;27.65;20.48;;;9.20;99.90;;;;;;2077861;28;20017;-76
2023/04/30 02:03:33;;;;;;;32.10;21.48;;;9.20;99.90;;;;;;2086099;28;20025;-74
2023/04/30 02:04:33;;;;;;;27.98;20.48;;;9.10;99.90;;;;;;2095197;28;20458;-75
2023/04/30 02:05:34;;;;;;;26.42;20.75;;;9.10;99.90;;;;;;2102943;28;20024;-76
2023/04/30 02:06:34;;;;;;;25.42;19.80;;;9.10;99.90;;;;;;2085286;28;20050;-75
2023/04/30 02:07:41;;;;;;;27.63;20.08;;;9.10;99.90;;;;;;2084234;28;20578;-76
2023/04/30 02:08:42;;;;;;;25.73;19.67;;;9.10;99.90;;;;;;2083031;28;20574;-75
2023/04/30 02:09:42;;;;;;;23.88;18.48;;;9.10;99.90;;;;;;2090076;28;20035;-76
2023/04/30 02:10:43;;;;;;;24.88;18.20;;;9.10;99.90;;;;;;2088422;28;20028;-76
2023/04/30 02:11:44;;;;;;;23.60;19.33;;;9.00;99.90;;;;;;2088024;28;20033;-76
2023/04/30 02:12:45;;;;;;;22.52;18.20;;;9.00;99.90;;;;;;2099570;28;20039;-76
2023/04/30 02:13:46;;;;;;;25.65;19.33;;;9.00;99.90;;;;;;2074486;28;20707;-75
2023/04/30 02:14:47;;;;;;;24.23;18.75;;;9.00;99.90;;;;;;2088151;28;20024;-75
2023/04/30 02:15:47;;;;;;;23.38;17.85;;;9.00;99.90;;;;;;2086837;28;20028;-76
2023/04/30 02:16:48;;;;;;;24.33;18.95;;;8.90;99.90;;;;;;2072825;28;20069;-75
2023/04/30 02:17:49;;;;;;;25.63;18.70;;;8.90;99.90;;;;;;2068283;28;20034;-75
2023/04/30 02:18:50;;;;;;;26.77;18.70;;;8.90;99.90;;;;;;2068539;28;20034;-76
2023/04/30 02:19:51;;;;;;;21.48;17.65;;;8.90;99.90;;;;;;2076624;28;20034;-75
2023/04/30 02:20:51;;;;;;;21.55;17.55;;;8.90;99.90;;;;;;2081720;28;20025;-75
2023/04/30 02:21:52;;;;;;;23.05;18.17;;;8.80;99.90;;;;;;2097010;28;20023;-76
2023/04/30 02:22:52;;;;;;;23.02;17.35;;;8.80;99.90;;;;;;2095514;28;20081;-76
2023/04/30 02:23:53;;;;;;;24.33;17.08;;;8.80;99.90;;;;;;2086904;28;20628;-76
2023/04/30 02:24:54;;;;;;;20.60;16.67;;;8.80;99.90;;;;;;2088577;28;20547;-76
2023/04/30 02:25:55;;;;;;;21.50;16.42;;;8.80;99.90;;;;;;2082015;28;20129;-75
2023/04/30 02:26:56;;;;;;;22.55;16.42;;;8.80;99.90;;;;;;2076290;28;20500;-76
2023/04/30 02:27:56;;;;;;;21.13;15.98;;;8.80;99.90;;;;;;2076957;28;20037;-75
2023/04/30 02:28:57;;;;;;;22.42;16.70;;;8.80;99.90;;;;;;2085755;28;20361;-74
2023/04/30 02:29:59;;;;;;;21.58;16.50;;;8.80;99.90;;;;;;2104082;28;20035;-75
2023/04/30 02:30:59;;;;;;;20.10;15.73;;;8.80;99.90;;;;;;2094348;28;20016;-76
2023/04/30 02:32:00;;;;;;;22.65;17.17;;;8.70;99.90;;;;;;2084388;28;20037;-75
2023/04/30 02:33:02;;;;;;;23.95;17.08;;;8.80;99.90;;;;;;2089752;28;20115;-76
2023/04/30 02:34:03;;;;;;;19.70;15.55;;;8.80;99.90;;;;;;2088604;28;20025;-75
2023/04/30 02:35:04;;;;;;;19.42;15.20;;;8.70;99.90;;;;;;2089664;28;20090;-76
2023/04/30 02:36:05;;;;;;;17.27;14.40;;;8.80;99.90;;;;;;2084813;28;20036;-75
2023/04/30 02:37:06;;;;;;;18.65;14.75;;;8.70;99.90;;;;;;2089675;28;20530;-76
2023/04/30 02:38:07;;;;;;;19.48;15.15;;;8.70;99.90;;;;;;2083289;28;20492;-75
2023/04/30 02:39:07;;;;;;;21.42;15.15;;;8.70;99.90;;;;;;2074239;28;20037;-75
2023/04/30 02:40:09;;;;;;;21.42;16.05;;;8.80;99.90;;;;;;2075339;28;20029;-76
2023/04/30 02:41:09;;;;;;;19.60;15.65;;;8.80;99.90;;;;;;2089335;28;20251;-76
2023/04/30 02:42:11;;;;;;;19.70;15.70;;;8.70;99.90;;;;;;2087955;28;20403;-75
2023/04/30 02:43:11;;;;;;;22.58;15.80;;;8.70;99.90;;;;;;2085919;28;20032;-75
2023/04/30 02:44:12;;;;;;;21.73;16.98;;;8.70;99.90;;;;;;2083042;28;20039;-74
2023/04/30 02:45:13;;;;;;;23.00;16.58;;;8.70;99.90;;;;;;2075276;28;20524;-76
2023/04/30 02:46:14;;;;;;;22.48;16.70;;;8.70;99.90;;;;;;2085656;28;20032;-76
2023/04/30 02:47:14;;;;;;;20.50;16.02;;;8.60;99.90;;;;;;2101470;28;20103;-75
2023/04/30 02:48:16;;;;;;;23.25;16.63;;;8.60;99.90;;;;;;2104522;28;20024;-75
2023/04/30 02:49:16;;;;;;;21.75;16.23;;;8.60;99.90;;;;;;2104144;28;20036;-77
2023/04/30 02:50:17;;;;;;;20.00;15.30;;;8.60;99.90;;;;;;2096393;28;20032;-77
2023/04/30 02:51:18;;;;;;;20.10;15.63;;;8.50;99.90;;;;;;2088253;28;20407;-75
2023/04/30 02:52:18;;;;;;;18.80;15.13;;;8.50;99.90;;;;;;2089439;28;20058;-75
2023/04/30 02:53:19;;;;;;;21.33;15.90;;;8.50;99.90;;;;;;2087162;28;20044;-75
2023/04/30 02:54:19;;;;;;;20.38;15.13;;;8.50;99.90;;;;;;2086476;28;20029;-77
2023/04/30 02:55:20;;;;;;;18.33;14.65;;;8.40;99.90;;;;;;2086371;28;20126;-76
2023/04/30 02:56:21;;;;;;;21.08;15.73;;;8.40;99.90;;;;;;2089094;28;20025;-75
2023/04/30 02:57:21;;;;;;;17.52;14.23;;;8.40;99.90;;;;;;2079588;28;20060;-76
2023/04/30 02:58:22;;;;;;;16.63;13.93;;;8.40;99.90;;;;;;2079472;28;20070;-76
2023/04/30 02:59:22;;;;;;;18.40;14.02;;;8.40;99.90;;;;;;2087175;28;20748;-74
2023/04/30 03:00:23;;;;;;;16.67;13.95;;;8.30;99.90;;;;;;2088303;28;20052;-76
2023/04/30 03:01:23;;;;;;;18.13;13.80;;;8.30;99.90;;;;;;2082972;28;20112;-75
2023/04/30 03:02:24;;;;;;;20.80;14.13;;;8.30;99.90;;;;;;2078586;28;20459;-76
2023/04/30 03:03:25;;;;;;;18.88;13.75;;;8.20;99.90;;;;;;2086196;28;20120;-75
2023/04/30 03:04:25;;;;;;;18.90;13.68;;;8.20;99.90;;;;;;2096898;28;20070;-76
2023/04/30 03:05:27;;;;;;;16.42;13.23;;;8.20;99.90;;;;;;2090862;28;20024;-76
2023/04/30 03:06:28;;;;;;;17.83;13.38;;;8.10;99.90;;;;;;2073578;28;20030;-77
2023/04/30 03:07:28;;;;;;;18.80;13.05;;;8.10;99.90;;;;;;2080527;28;20041;-76
2023/04/30 03:08:29;;;;;;;17.02;13.23;;;8.10;99.90;;;;;;2089461;28;20498;-75
2023/04/30 03:09:31;;;;;;;15.65;12.27;;;8.10;99.90;;;;;;2088583;28;20462;-76
2023/04/30 03:10:31;;;;;;;17.10;12.57;;;8.10;99.90;;;;;;2086181;28;20107;-77
2023/04/30 03:11:32;;;;;;;17.50;13.10;;;8.10;99.90;;;;;;2090963;28;20028;-76
2023/04/30 03:12:33;;;;;;;16.30;12.98;;;8.10;99.90;;;;;;2090961;28;20086;-73
2023/04/30 03:13:33;;;;;;;16.42;12.15;;;8.00;99.90;;;;;;2096743;28;20621;-77
2023/04/30 03:14:34;;;;;;;16.00;11.80;;;8.00;99.90;;;;;;2096331;28;20400;-75
2023/04/30 03:15:34;;;;;;;15.18;11.88;;;8.00;99.90;;;;;;2089398;28;20025;-75
2023/04/30 03:16:35;;;;;;;18.20;12.27;;;8.00;99.90;;;;;;2089147;28;20422;-75
2023/04/30 03:17:36;;;;;;;15.15;11.82;;;8.00;99.90;;;;;;2084307;28;20529;-75
2023/04/30 03:18:36;;;;;;;14.95;11.32;;;8.00;99.90;;;;;;2091072;28;20077;-74
2023/04/30 03:19:37;;;;;;;14.95;11.35;;;8.00;99.90;;;;;;2078242;28;20052;-76
2023/04/30 03:20:37;;;;;;;14.57;11.95;;;8.00;99.90;;;;;;2086761;28;20261;-76
2023/04/30 03:21:38;;;;;;;16.40;12.73;;;8.00;99.90;;;;;;2087490;28;20052;-76
2023/04/30 03:22:38;;;;;;;17.20;12.60;;;8.00;99.90;;;;;;2086340;28;20033;-76
2023/04/30 03:23:39;;;;;;;15.98;11.60;;;7.90;99.90;;;;;;2088605;28;20029;-76
2023/04/30 03:24:40;;;;;;;15.85;11.27;;;7.90;99.90;;;;;;2084690;28;20033;-76
2023/04/30 03:25:40;;;;;;;14.98;11.80;;;7.90;99.90;;;;;;2088813;28;20549;-77
2023/04/30 03:26:41;;;;;;;17.98;12.57;;;7.90;99.90;;;;;;2090060;28;20103;-75
2023/04/30 03:27:42;;;;;;;14.23;11.90;;;7.90;99.90;;;;;;2085843;28;20048;-75
2023/04/30 03:28:42;;;;;;;16.90;12.02;;;7.90;99.90;;;;;;2090696;28;20505;-76
2023/04/30 03:29:43;;;;;;;14.50;11.27;;;7.90;99.90;;;;;;2091675;28;20083;-76
2023/04/30 03:30:43;;;;;;;15.02;12.02;;;7.80;99.90;;;;;;2091757;28;20055;-75
2023/04/30 03:31:44;;;;;;;18.27;12.23;;;7.80;99.90;;;;;;2091775;28;20060;-74
2023/04/30 03:32:45;;;;;;;14.73;11.35;;;7.80;99.90;;;;;;2089597;28;20036;-75
2023/04/30 03:33:45;;;;;;;14.95;11.43;;;7.80;99.90;;;;;;2087435;28;20029;-76
2023/04/30 03:34:46;;;;;;;14.63;11.27;;;7.80;99.90;;;;;;2084437;28;20040;-76
2023/04/30 03:35:47;;;;;;;14.60;11.35;;;7.70;99.90;;;;;;2089124;28;20194;-76
2023/04/30 03:36:48;;;;;;;13.32;10.60;;;7.70;99.90;;;;;;2092888;28;20020;-74
2023/04/30 03:37:49;;;;;;;14.13;10.68;;;7.70;99.90;;;;;;2085840;28;20025;-76
2023/04/30 03:38:49;;;;;;;11.60;10.07;;;7.70;99.90;;;;;;2086022;28;20056;-76
2023/04/30 03:39:50;;;;;;;14.32;10.40;;;7.70;99.90;;;;;;2086718;28;20112;-75
2023/04/30 03:40:50;;;;;;;14.85;10.68;;;7.70;99.90;;;;;;2093939;28;20032;-74
2023/04/30 03:41:51;;;;;;;14.52;10.40;;;7.70;99.90;;;;;;2093841;28;20059;-74
2023/04/30 03:42:51;;;;;;;12.85;10.68;;;7.70;99.90;;;;;;2089201;28;20029;-75
2023/04/30 03:43:53;;;;;;;14.32;10.73;;;7.70;99.90;;;;;;2104020;28;20035;-75
2023/04/30 03:44:54;;;;;;;15.27;10.43;;;7.70;99.90;;;;;;2104800;28;20126;-75
2023/04/30 03:45:54;;;;;;;14.10;10.65;;;7.70;99.90;;;;;;2084190;28;20048;-75
2023/04/30 03:46:55;;;;;;;14.60;10.80;;;7.70;99.90;;;;;;2085839;28;20021;-75
2023/04/30 03:47:55;;;;;;;17.20;10.68;;;7.70;99.90;;;;;;2090778;28;20098;-74
2023/04/30 03:48:56;;;;;;;13.60;10.23;;;7.70;99.90;;;;;;2082677;28;20116;-74
2023/04/30 03:49:56;;;;;;;13.43;10.50;;;7.70;99.90;;;;;;2072467;28;20030;-74
2023/04/30 03:50:57;;;;;;;14.18;10.10;;;7.70;99.90;;;;;;2095368;28;20029;-74
2023/04/30 03:51:58;;;;;;;12.65;10.00;;;7.80;99.90;;;;;;2103849;28;20590;-75
2023/04/30 03:52:59;;;;;;;15.73;10.07;;;7.80;99.90;;;;;;2087593;28;20032;-75
2023/04/30 03:53:59;;;;;;;12.65;9.77;;;7.80;99.90;;;;;;2087606;28;20162;-75
2023/04/30 03:55:00;;;;;;;12.77;9.43;;;7.80;99.90;;;;;;2086904;28;20483;-75
2023/04/30 03:56:01;;;;;;;13.82;9.55;;;7.80;99.90;;;;;;2091190;28;20511;-74
2023/04/30 03:57:06;;;;;;;13.05;9.85;;;7.80;99.90;;;;;;2086077;28;20036;-75
2023/04/30 03:58:07;;;;;;;12.63;9.20;;;7.80;99.90;;;;;;2086218;28;20032;-75
2023/04/30 03:59:07;;;;;;;14.85;9.88;;;7.80;99.90;;;;;;2086487;28;20037;-74
2023/04/30 04:00:09;;;;;;;13.88;9.20;;;7.80;99.90;;;;;;2084281;28;20025;-75
2023/04/30 04:01:21;;;;;;;12.65;9.40;;;7.90;99.90;;;;;;2077836;28;20701;-75
2023/04/30 04:02:22;;;;;;;13.43;9.40;;;7.80;99.90;;;;;;2092831;28;20044;-74
2023/04/30 04:03:22;;;;;;;11.18;9.13;;;7.90;99.90;;;;;;2104447;28;20236;-76
2023/04/30 04:04:23;;;;;;;11.65;8.82;;;7.90;99.90;;;;;;2090803;28;20017;-76
2023/04/30 04:05:24;;;;;;;12.35;9.48;;;7.80;99.90;;;;;;2097368;28;20107;-76
2023/04/30 04:06:25;;;;;;;13.40;9.32;;;7.80;99.90;;;;;;2086448;28;20406;-75
2023/04/30 04:07:26;;;;;;;14.38;10.20;;;7.80;99.90;;;;;;2084415;28;20041;-75
2023/04/30 04:08:26;;;;;;;11.68;9.45;;;7.80;99.90;;;;;;2088829;28;20032;-75
2023/04/30 04:09:28;;;;;;;14.38;9.40;;;7.80;99.90;;;;;;2080519;28;20017;-76
2023/04/30 04:10:28;;;;;;;12.50;9.57;;;7.80;99.90;;;;;;2073665;28;20237;-77
2023/04/30 04:11:29;;;;;;;12.63;9.55;;;7.80;99.90;;;;;;2091489;28;20109;-77
2023/04/30 04:12:30;;;;;;;12.32;9.38;;;7.80;99.90;;;;;;2088753;28;20086;-76
2023/04/30 04:13:31;;;;;;;11.82;9.02;;;7.80;99.90;;;;;;2090265;28;20457;-76
2023/04/30 04:14:32;;;;;;;12.93;8.82;;;7.80;99.90;;;;;;2085267;28;20063;-77
2023/04/30 04:15:33;;;;;;;12.30;9.10;;;7.90;99.90;;;;;;2081572;28;20060;-76
2023/04/30 04:16:35;;;;;;;11.45;8.90;;;7.90;99.90;;;;;;2076950;28;20028;-79
2023/04/30 04:17:36;;;;;;;14.45;9.50;;;7.90;99.90;;;;;;2097014;28;20040;-77
2023/04/30 04:18:36;;;;;;;13.30;9.23;;;7.90;99.90;;;;;;2085568;28;20028;-77
2023/04/30 04:19:37;;;;;;;11.98;8.50;;;7.90;99.90;;;;;;2077470;28;20474;-78
2023/04/30 04:20:38;;;;;;;11.48;8.52;;;7.90;99.90;;;;;;2093426;28;20115;-78
2023/04/30 04:21:38;;;;;;;14.27;9.02;;;7.90;99.90;;;;;;2087943;28;20032;-77
2023/04/30 04:22:45;;;;;;;12.77;9.32;;;7.90;99.90;;;;;;2085061;28;20035;-81
2023/04/30 04:23:45;;;;;;;12.63;9.13;;;7.90;99.90;;;;;;2078874;28;20021;-81
2023/04/30 04:24:46;;;;;;;10.85;8.88;;;7.90;99.90;;;;;;2077063;28;20040;-82
2023/04/30 04:25:52;;;;;;;13.50;9.27;;;7.90;99.90;;;;;;2081157;28;20017;-82
2023/04/30 04:26:54;;;;;;;14.75;9.20;;;8.00;99.90;;;;;;2094609;28;20031;-80
2023/04/30 04:27:55;;;;;;;12.95;8.48;;;7.90;99.90;;;;;;2093594;28;20293;-81
2023/04/30 04:28:56;;;;;;;11.45;8.43;;;8.00;99.90;;;;;;2082749;28;20417;-80
2023/04/30 04:29:56;;;;;;;15.13;8.95;;;8.10;99.90;;;;;;2085520;28;20123;-80
2023/04/30 04:30:58;;;;;;;12.23;8.45;;;8.20;99.90;;;;;;2081522;28;20029;-78
2023/04/30 04:32:03;;;;;;;10.50;7.97;;;8.30;99.90;;;;;;2080423;28;20067;-81
2023/04/30 04:33:05;;;;;;;10.32;7.90;;;8.60;99.90;;;;;;2088772;28;20635;-77
2023/04/30 04:34:06;;;;;;;13.23;8.25;;;8.90;99.90;;;;;;2094164;28;20059;-76
2023/04/30 04:35:07;;;;;;;12.10;7.80;;;9.10;99.90;;;;;;2082896;28;20102;-78
2023/04/30 04:36:08;;;;;;;9.43;7.65;;;9.20;99.90;;;;;;2087210;28;20502;-78
2023/04/30 04:37:08;;;;;;;12.13;8.13;;;9.30;99.90;;;;;;2090674;28;20041;-79
2023/04/30 04:38:09;;;;;;;9.25;7.25;;;9.50;99.90;;;;;;2103573;28;20056;-77
2023/04/30 04:39:10;;;;;;;11.45;7.05;;;9.70;99.90;;;;;;2087826;28;20484;-79
2023/04/30 04:40:12;;;;;;;11.05;7.53;;;9.90;99.90;;;;;;2094302;28;20492;-78
2023/04/30 04:41:13;;;;;;;8.40;7.20;;;10.10;99.90;;;;;;2087622;28;20494;-78
2023/04/30 04:42:18;;;;;;;9.57;6.90;;;10.30;99.90;;;;;;2091118;28;20037;-77
2023/04/30 04:43:19;;;;;;;9.95;7.15;;;10.50;99.90;;;;;;2093947;28;20039;-77
2023/04/30 04:44:20;;;;;;;9.57;6.50;;;10.60;99.90;;;;;;2079871;28;20580;-79
2023/04/30 04:45:21;;;;;;;9.27;6.50;;;10.80;99.90;;;;;;2095594;28;20027;-78
2023/04/30 04:46:24;;;;;;;12.20;7.43;;;11.00;99.90;;;;;;2087848;28;20031;-79
2023/04/30 04:47:26;;;;;;;8.50;6.82;;;11.10;99.90;;;;;;2089419;28;20569;-80
2023/04/30 04:48:26;;;;;;;9.05;6.53;;;11.00;99.90;;;;;;2087106;28;20028;-76
2023/04/30 04:49:27;;;;;;;10.25;6.95;;;11.20;99.90;;;;;;2084842;28;20108;-81
2023/04/30 04:50:28;;;;;;;8.82;6.88;;;11.20;99.90;;;;;;2091233;28;20109;-79
2023/04/30 04:51:28;;;;;;;9.80;6.60;;;11.20;99.90;;;;;;2093870;28;20039;-79
2023/04/30 04:52:29;;;;;;;9.75;7.10;;;11.10;99.90;;;;;;2093971;28;20032;-80
2023/04/30 04:53:29;;;;;;;8.55;6.75;;;11.10;99.90;;;;;;2092337;28;20399;-80
2023/04/30 04:54:30;;;;;;;9.07;6.55;;;11.20;99.90;;;;;;2082067;28;20025;-80
2023/04/30 04:55:30;;;;;;;9.77;6.50;;;11.40;99.90;;;;;;2079953;28;20477;-80
2023/04/30 04:56:31;;;;;;;10.85;6.55;;;11.50;99.90;;;;;;2092461;28;20013;-79
2023/04/30 04:57:32;;;;;;;8.63;6.35;;;11.70;99.90;;;;;;2094916;28;20032;-79
2023/04/30 04:58:33;;;;;;;8.73;6.38;;;11.90;99.90;;;;;;2074079;28;20490;-78
2023/04/30 04:59:33;;;;;;;7.20;6.07;;;12.00;99.90;;;;;;2093319;28;20115;-76
2023/04/30 05:00:34;;;;;;;9.60;6.63;;;12.20;99.90;;;;;;2085827;28;20152;-77
2023/04/30 05:01:35;;;;;;;8.85;5.85;;;12.30;99.90;;;;;;2077070;28;20577;-78
2023/04/30 05:02:35;;;;;;;8.10;5.97;;;12.50;99.90;;;;;;2084068;28;20028;-78
2023/04/30 05:03:36;;;;;;;10.82;6.47;;;12.60;99.90;;;;;;2078941;28;20115;-77
2023/04/30 05:04:36;;;;;;;8.50;6.20;;;12.70;99.90;;;;;;2088591;28;20059;-78
2023/04/30 05:05:37;;;;;;;7.65;5.97;;;12.70;99.90;;;;;;2086193;28;20027;-79
2023/04/30 05:06:38;;;;;;;11.80;6.85;;;12.70;99.90;;;;;;2088028;28;20506;-78
2023/04/30 05:07:39;;;;;;;8.38;6.05;;;12.70;99.90;;;;;;2083641;28;20071;-79
2023/04/30 05:08:39;;;;;;;7.47;5.80;;;12.70;99.90;;;;;;2073308;28;20112;-79
2023/04/30 05:09:40;;;;;;;7.97;6.07;;;12.80;99.90;;;;;;2085236;28;20028;-77
2023/04/30 05:10:41;;;;;;;9.48;6.57;;;12.90;99.90;;;;;;2082099;28;20091;-79
2023/04/30 05:11:42;;;;;;;10.30;6.15;;;12.80;99.90;;;;;;2085847;28;20025;-79
2023/04/30 05:12:43;;;;;;;8.68;6.07;;;12.60;99.90;;;;;;2084563;28;20024;-78
2023/04/30 05:13:43;;;;;;;8.43;5.93;;;12.40;99.90;;;;;;2080913;28;20029;-77
2023/04/30 05:14:44;;;;;;;8.88;5.90;;;12.50;99.90;;;;;;2079449;28;20094;-76
2023/04/30 05:15:44;;;;;;;9.52;6.20;;;12.60;99.90;;;;;;2088744;28;20024;-78
2023/04/30 05:16:45;;;;;;;11.00;6.38;;;12.80;99.90;;;;;;2085681;28;20040;-78
2023/04/30 05:17:46;;;;;;;8.60;6.53;;;12.70;99.90;;;;;;2077484;28;20104;-77
2023/04/30 05:18:46;;;;;;;8.25;5.75;;;12.60;99.90;;;;;;2077657;28;20048;-78
2023/04/30 05:19:49;;;;;;;9.80;6.15;;;12.80;99.90;;;;;;2087399;28;20071;-78
2023/04/30 05:20:50;;;;;;;11.32;6.20;;;12.90;99.90;;;;;;2087451;28;20074;-78